createdAt,value
2023-03-19T00:00:32.831Z,1.34
2023-03-19T00:03:19.827Z,1.34
2023-03-19T00:05:53.943Z,1.33
2023-03-19T00:08:21.589Z,1.33
2023-03-19T00:10:49.221Z,1.31
2023-03-19T00:13:16.249Z,1.32
2023-03-19T00:15:43.509Z,1.31
2023-03-19T00:18:10.475Z,1.33
2023-03-19T00:20:37.681Z,1.32
2023-03-19T00:23:04.675Z,1.33
2023-03-19T00:25:32.626Z,1.36
2023-03-19T00:27:59.622Z,1.42
2023-03-19T00:30:27.312Z,1.50
2023-03-19T00:32:54.322Z,1.54
2023-03-19T00:35:21.633Z,1.63
2023-03-19T00:37:48.555Z,1.69
2023-03-19T00:40:15.825Z,1.81
2023-03-19T00:42:44.885Z,1.89
2023-03-19T00:45:13.292Z,1.96
2023-03-19T00:47:40.560Z,2.01
2023-03-19T00:50:08.453Z,2.07
2023-03-19T00:52:35.421Z,2.14
2023-03-19T00:55:02.612Z,2.18
2023-03-19T00:57:29.589Z,2.22
2023-03-19T00:59:56.790Z,2.26
2023-03-19T01:02:26.117Z,2.32
2023-03-19T01:04:53.349Z,2.31
2023-03-19T01:07:21.437Z,2.30
2023-03-19T01:09:48.637Z,2.29
2023-03-19T01:12:15.661Z,2.33
2023-03-19T01:14:42.795Z,2.32
2023-03-19T01:17:09.984Z,2.29
2023-03-19T01:19:37.540Z,2.23
2023-03-19T01:22:04.652Z,2.15
2023-03-19T01:24:32.402Z,2.05
2023-03-19T01:26:59.305Z,2.00
2023-03-19T01:29:26.580Z,2.00
2023-03-19T01:31:53.509Z,2.12
2023-03-19T01:34:21.106Z,2.18
2023-03-19T01:36:49.109Z,2.28
2023-03-19T01:39:16.360Z,2.47
2023-03-19T01:41:43.253Z,2.72
2023-03-19T01:44:31.708Z,3.02
2023-03-19T01:47:01.620Z,3.25
2023-03-19T01:49:30.686Z,3.46
2023-03-19T01:52:01.040Z,3.64
2023-03-19T01:54:30.625Z,3.78
2023-03-19T01:57:11.584Z,3.88
2023-03-19T01:59:43.964Z,3.95
2023-03-19T02:02:30.616Z,4.02
2023-03-19T02:05:10.818Z,4.06
2023-03-19T02:07:39.745Z,4.07
2023-03-19T02:10:12.088Z,4.06
2023-03-19T02:12:39.023Z,4.08
2023-03-19T02:15:07.340Z,4.08
2023-03-19T02:17:34.586Z,4.08
2023-03-19T02:20:05.271Z,4.07
2023-03-19T02:22:32.936Z,4.08
2023-03-19T02:25:08.505Z,4.11
2023-03-19T02:27:35.740Z,4.12
2023-03-19T02:30:22.921Z,4.12
2023-03-19T02:32:49.822Z,4.06
2023-03-19T02:35:17.073Z,4.10
2023-03-19T02:37:43.909Z,4.13
2023-03-19T02:40:23.270Z,4.11
2023-03-19T02:42:50.385Z,4.08
2023-03-19T02:45:18.302Z,4.07
2023-03-19T02:47:45.294Z,4.11
2023-03-19T02:50:13.021Z,4.06
2023-03-19T02:52:40.022Z,4.01
2023-03-19T02:55:08.068Z,4.05
2023-03-19T02:57:35.076Z,4.05
2023-03-19T03:00:02.819Z,4.03
2023-03-19T03:02:29.928Z,3.99
2023-03-19T03:04:57.109Z,3.95
2023-03-19T03:07:24.050Z,3.92
2023-03-19T03:09:51.229Z,3.90
2023-03-19T03:12:18.193Z,3.89
2023-03-19T03:14:45.988Z,3.98
2023-03-19T03:17:13.532Z,3.95
2023-03-19T03:19:40.741Z,3.98
2023-03-19T03:22:08.108Z,3.96
2023-03-19T03:24:35.404Z,3.96
2023-03-19T03:27:02.295Z,3.96
2023-03-19T03:29:29.609Z,3.95
2023-03-19T03:31:56.659Z,3.99
2023-03-19T03:34:23.832Z,4.00
2023-03-19T03:36:50.944Z,4.02
2023-03-19T03:39:19.170Z,4.01
2023-03-19T03:41:46.559Z,4.04
2023-03-19T03:44:13.688Z,4.12
2023-03-19T03:46:40.801Z,4.12
2023-03-19T03:49:07.970Z,4.12
2023-03-19T03:51:34.917Z,4.07
2023-03-19T03:54:02.298Z,4.03
2023-03-19T03:56:29.253Z,3.95
2023-03-19T03:58:56.661Z,3.85
2023-03-19T04:01:23.625Z,3.74
2023-03-19T04:03:51.186Z,3.72
2023-03-19T04:06:20.821Z,3.68
2023-03-19T04:08:48.289Z,3.70
2023-03-19T04:11:15.320Z,3.69
2023-03-19T04:13:42.525Z,3.68
2023-03-19T04:16:11.203Z,3.67
2023-03-19T04:18:39.005Z,3.69
2023-03-19T04:21:06.594Z,3.68
2023-03-19T04:23:34.052Z,3.67
2023-03-19T04:26:03.440Z,3.61
2023-03-19T04:28:31.379Z,3.47
2023-03-19T04:31:07.011Z,3.37
2023-03-19T04:33:35.728Z,3.31
2023-03-19T04:36:03.861Z,3.26
2023-03-19T04:38:32.021Z,3.15
2023-03-19T04:40:59.025Z,3.06
2023-03-19T04:43:26.264Z,3.03
2023-03-19T04:45:53.298Z,2.97
2023-03-19T04:48:20.781Z,2.93
2023-03-19T04:50:48.313Z,2.90
2023-03-19T04:53:16.045Z,2.85
2023-03-19T04:55:42.983Z,2.82
2023-03-19T04:58:11.020Z,2.76
2023-03-19T05:00:38.359Z,2.77
2023-03-19T05:03:05.582Z,2.78
2023-03-19T05:05:32.563Z,2.81
2023-03-19T05:07:59.845Z,2.95
2023-03-19T05:10:26.800Z,3.13
2023-03-19T05:12:54.103Z,3.37
2023-03-19T05:15:21.048Z,3.60
2023-03-19T05:17:48.853Z,3.92
2023-03-19T05:20:16.015Z,4.35
2023-03-19T05:22:43.270Z,4.88
2023-03-19T05:25:10.196Z,5.47
2023-03-19T05:27:37.417Z,6.10
2023-03-19T05:30:06.158Z,6.80
2023-03-19T05:32:34.085Z,7.46
2023-03-19T05:35:01.050Z,8.15
2023-03-19T05:37:28.279Z,8.71
2023-03-19T05:39:55.512Z,9.16
2023-03-19T05:42:22.654Z,9.50
2023-03-19T05:44:49.564Z,9.69
2023-03-19T05:47:16.792Z,9.92
2023-03-19T05:49:43.633Z,10.29
2023-03-19T05:52:11.255Z,10.84
2023-03-19T05:54:38.204Z,11.51
2023-03-19T05:57:05.436Z,12.34
2023-03-19T05:59:32.457Z,13.23
2023-03-19T06:01:59.919Z,14.02
2023-03-19T06:04:27.374Z,14.58
2023-03-19T06:06:54.655Z,15.02
2023-03-19T06:09:21.585Z,15.09
2023-03-19T06:11:50.039Z,15.39
2023-03-19T06:14:17.050Z,15.77
2023-03-19T06:16:44.330Z,16.15
2023-03-19T06:19:11.437Z,16.70
2023-03-19T06:21:38.658Z,16.98
2023-03-19T06:24:06.644Z,17.19
2023-03-19T06:26:34.546Z,16.98
2023-03-19T06:29:01.527Z,16.69
2023-03-19T06:31:28.907Z,16.11
2023-03-19T06:33:56.533Z,15.86
2023-03-19T06:36:23.933Z,15.50
2023-03-19T06:38:51.278Z,15.00
2023-03-19T06:41:18.542Z,14.73
2023-03-19T06:43:45.519Z,14.59
2023-03-19T06:46:13.128Z,14.60
2023-03-19T06:48:40.125Z,14.64
2023-03-19T06:51:07.357Z,14.72
2023-03-19T06:53:34.740Z,14.65
2023-03-19T06:56:01.928Z,14.32
2023-03-19T06:58:28.945Z,14.03
2023-03-19T07:00:56.915Z,13.97
2023-03-19T07:03:24.337Z,14.09
2023-03-19T07:05:52.037Z,14.10
2023-03-19T07:08:19.224Z,14.12
2023-03-19T07:10:46.471Z,14.30
2023-03-19T07:13:13.447Z,14.62
2023-03-19T07:15:40.707Z,14.97
2023-03-19T07:18:07.594Z,15.49
2023-03-19T07:20:35.119Z,15.98
2023-03-19T07:23:02.248Z,16.14
2023-03-19T07:25:29.451Z,16.37
2023-03-19T07:27:56.422Z,16.23
2023-03-19T07:30:24.423Z,16.07
2023-03-19T07:32:51.576Z,16.12
2023-03-19T07:35:18.986Z,16.30
2023-03-19T07:37:46.070Z,16.55
2023-03-19T07:40:14.218Z,16.91
2023-03-19T07:42:42.307Z,16.51
2023-03-19T07:45:10.896Z,15.89
2023-03-19T07:47:37.806Z,16.03
2023-03-19T07:50:05.416Z,16.15
2023-03-19T07:52:32.376Z,16.03
2023-03-19T07:54:59.555Z,15.91
2023-03-19T07:57:27.265Z,15.97
2023-03-19T07:59:54.471Z,16.14
2023-03-19T08:02:23.309Z,16.19
2023-03-19T08:04:51.338Z,16.21
2023-03-19T08:07:18.348Z,15.89
2023-03-19T08:09:45.530Z,16.03
2023-03-19T08:12:13.417Z,16.30
2023-03-19T08:14:40.779Z,16.25
2023-03-19T08:17:08.335Z,16.06
2023-03-19T08:19:35.642Z,15.86
2023-03-19T08:22:02.603Z,16.11
2023-03-19T08:24:29.832Z,16.40
2023-03-19T08:26:56.861Z,16.88
2023-03-19T08:29:26.422Z,17.18
2023-03-19T08:31:54.614Z,17.22
2023-03-19T08:34:22.044Z,17.44
2023-03-19T08:36:49.347Z,17.73
2023-03-19T08:39:16.647Z,18.10
2023-03-19T08:41:43.880Z,18.04
2023-03-19T08:44:11.052Z,18.36
2023-03-19T08:46:38.401Z,18.82
2023-03-19T08:49:05.740Z,18.90
2023-03-19T08:51:32.921Z,18.68
2023-03-19T08:53:59.852Z,18.14
2023-03-19T08:56:27.105Z,18.03
2023-03-19T08:58:57.118Z,17.90
2023-03-19T09:01:24.756Z,17.95
2023-03-19T09:03:51.753Z,18.18
2023-03-19T09:06:19.004Z,18.11
2023-03-19T09:08:46.379Z,18.25
2023-03-19T09:11:14.687Z,18.35
2023-03-19T09:13:41.869Z,18.72
2023-03-19T09:16:09.370Z,18.99
2023-03-19T09:18:36.386Z,18.78
2023-03-19T09:21:03.933Z,18.67
2023-03-19T09:23:30.856Z,19.07
2023-03-19T09:25:58.089Z,18.93
2023-03-19T09:28:25.768Z,19.01
2023-03-19T09:30:53.653Z,19.28
2023-03-19T09:33:21.571Z,19.44
2023-03-19T09:35:53.913Z,19.37
2023-03-19T09:38:22.495Z,19.43
2023-03-19T09:41:09.955Z,19.12
2023-03-19T09:43:49.507Z,19.01
2023-03-19T09:46:22.636Z,18.89
2023-03-19T09:49:16.589Z,18.74
2023-03-19T09:51:48.995Z,18.41
2023-03-19T09:54:42.823Z,18.53
2023-03-19T09:57:14.480Z,18.87
2023-03-19T09:59:42.176Z,18.82
2023-03-19T10:02:18.716Z,18.80
2023-03-19T10:05:07.891Z,19.26
2023-03-19T10:07:40.908Z,19.33
2023-03-19T10:10:44.728Z,19.48
2023-03-19T10:13:34.276Z,19.77
2023-03-19T10:16:03.675Z,19.62
2023-03-19T10:18:39.520Z,19.82
2023-03-19T10:21:18.746Z,20.43
2023-03-19T10:23:50.845Z,20.80
2023-03-19T10:26:21.667Z,20.91
2023-03-19T10:29:09.353Z,20.80
2023-03-19T10:31:55.107Z,21.16
2023-03-19T10:34:34.881Z,21.77
2023-03-19T10:37:30.229Z,21.67
2023-03-19T10:40:00.354Z,22.26
2023-03-19T10:42:31.977Z,22.54
2023-03-19T10:45:06.337Z,22.56
2023-03-19T10:47:40.059Z,22.12
2023-03-19T10:50:15.009Z,21.88
2023-03-19T10:52:43.664Z,22.10
2023-03-19T10:55:17.940Z,21.86
2023-03-19T10:57:50.272Z,21.59
2023-03-19T11:00:24.456Z,21.51
2023-03-19T11:02:56.275Z,21.55
2023-03-19T11:05:26.996Z,21.54
2023-03-19T11:08:35.018Z,20.70
2023-03-19T11:11:02.704Z,19.90
2023-03-19T11:13:30.392Z,20.51
2023-03-19T11:16:00.958Z,20.71
2023-03-19T11:18:31.836Z,20.64
2023-03-19T11:23:32.236Z,20.54
2023-03-19T11:26:01.937Z,20.39
2023-03-19T11:28:33.692Z,20.60
2023-03-19T11:31:27.305Z,21.58
2023-03-19T11:34:21.410Z,21.94
2023-03-19T11:36:57.006Z,22.30
2023-03-19T11:39:45.936Z,22.19
2023-03-19T11:42:51.381Z,21.98
2023-03-19T11:45:26.892Z,21.67
2023-03-19T11:48:12.559Z,22.33
2023-03-19T11:50:53.448Z,22.52
2023-03-19T11:53:27.728Z,22.36
2023-03-19T11:56:21.051Z,22.62
2023-03-19T11:59:06.004Z,22.81
2023-03-19T12:01:39.414Z,22.20
2023-03-19T12:05:00.314Z,21.76
2023-03-19T12:07:54.986Z,21.14
2023-03-19T12:10:27.903Z,20.74
2023-03-19T12:13:08.476Z,21.04
2023-03-19T12:16:01.731Z,21.04
2023-03-19T12:18:34.306Z,20.93
2023-03-19T12:21:04.615Z,20.86
2023-03-19T12:24:04.192Z,20.72
2023-03-19T12:26:34.213Z,20.81
2023-03-19T12:29:15.293Z,21.12
2023-03-19T12:31:52.701Z,21.25
2023-03-19T12:34:34.300Z,20.98
2023-03-19T12:37:21.515Z,21.32
2023-03-19T12:39:57.843Z,21.24
2023-03-19T12:42:31.588Z,21.07
2023-03-19T12:45:01.191Z,21.08
2023-03-19T12:47:36.660Z,21.21
2023-03-19T12:50:09.720Z,20.97
2023-03-19T12:52:39.941Z,20.92
2023-03-19T12:55:12.794Z,20.42
2023-03-19T12:57:46.341Z,20.07
2023-03-19T13:00:36.080Z,19.77
2023-03-19T13:03:40.984Z,20.15
2023-03-19T13:06:23.411Z,20.10
2023-03-19T13:09:07.527Z,20.17
2023-03-19T13:11:40.449Z,20.42
2023-03-19T13:14:07.819Z,20.59
2023-03-19T13:16:53.087Z,20.75
2023-03-19T13:19:52.765Z,20.57
2023-03-19T13:22:29.083Z,20.30
2023-03-19T13:24:58.412Z,20.01
2023-03-19T13:27:30.823Z,19.75
2023-03-19T13:30:06.847Z,19.78
2023-03-19T13:32:40.225Z,19.73
2023-03-19T13:35:33.722Z,19.26
2023-03-19T13:38:21.968Z,19.21
2023-03-19T13:40:57.693Z,19.03
2023-03-19T13:43:43.145Z,18.86
2023-03-19T13:46:12.845Z,18.68
2023-03-19T13:48:45.585Z,18.39
2023-03-19T13:51:12.664Z,18.22
2023-03-19T13:53:42.699Z,17.87
2023-03-19T13:56:28.638Z,17.48
2023-03-19T13:59:15.019Z,17.22
2023-03-19T14:01:45.263Z,16.95
2023-03-19T14:04:18.607Z,16.71
2023-03-19T14:06:49.402Z,16.67
2023-03-19T14:09:43.135Z,16.60
2023-03-19T14:12:23.608Z,16.64
2023-03-19T14:14:58.329Z,16.77
2023-03-19T14:17:31.200Z,16.83
2023-03-19T14:20:08.897Z,16.80
2023-03-19T14:22:56.625Z,16.70
2023-03-19T14:25:29.231Z,16.51
2023-03-19T14:28:23.155Z,16.42
2023-03-19T14:30:50.973Z,16.23
2023-03-19T14:33:22.997Z,16.13
2023-03-19T14:35:50.532Z,16.11
2023-03-19T14:38:40.921Z,16.13
2023-03-19T14:41:17.217Z,16.22
2023-03-19T14:43:59.618Z,16.34
2023-03-19T14:46:33.111Z,16.36
2023-03-19T14:49:21.511Z,16.34
2023-03-19T14:52:19.710Z,16.30
2023-03-19T14:55:02.509Z,16.24
2023-03-19T14:57:34.951Z,16.19
2023-03-19T15:00:07.154Z,16.16
2023-03-19T15:02:41.293Z,16.16
2023-03-19T15:05:33.986Z,16.17
2023-03-19T15:08:04.505Z,16.19
2023-03-19T15:10:45.648Z,16.12
2023-03-19T15:13:27.125Z,16.03
2023-03-19T15:16:09.744Z,15.93
2023-03-19T15:18:38.013Z,15.87
2023-03-19T15:21:06.235Z,15.81
2023-03-19T15:23:33.882Z,15.77
2023-03-19T15:26:03.316Z,15.68
2023-03-19T15:28:44.762Z,15.51
2023-03-19T15:31:29.900Z,15.38
2023-03-19T15:34:00.242Z,15.18
2023-03-19T15:36:30.932Z,15.07
2023-03-19T15:39:02.948Z,14.97
2023-03-19T15:41:33.107Z,14.87
2023-03-19T15:44:04.975Z,14.77
2023-03-19T15:46:36.544Z,14.71
2023-03-19T15:49:10.645Z,14.56
2023-03-19T15:51:39.899Z,14.51
2023-03-19T15:54:07.976Z,14.42
2023-03-19T15:56:35.493Z,14.31
2023-03-19T15:59:04.293Z,14.24
2023-03-19T16:01:33.412Z,14.11
2023-03-19T16:04:04.697Z,14.04
2023-03-19T16:06:36.536Z,13.92
2023-03-19T16:09:34.041Z,13.73
2023-03-19T16:12:01.857Z,13.69
2023-03-19T16:14:42.188Z,13.57
2023-03-19T16:17:20.394Z,13.41
2023-03-19T16:19:50.476Z,13.30
2023-03-19T16:22:22.529Z,13.19
2023-03-19T16:24:51.071Z,13.05
2023-03-19T16:27:25.942Z,12.90
2023-03-19T16:30:19.699Z,12.73
2023-03-19T16:33:03.924Z,12.60
2023-03-19T16:35:33.475Z,12.48
2023-03-19T16:38:24.296Z,12.30
2023-03-19T16:41:13.863Z,12.11
2023-03-19T16:43:45.987Z,11.96
2023-03-19T16:46:16.699Z,11.81
2023-03-19T16:48:44.020Z,11.64
2023-03-19T16:51:18.448Z,11.45
2023-03-19T16:53:46.331Z,11.29
2023-03-19T16:56:15.633Z,11.14
2023-03-19T16:58:46.651Z,11.00
2023-03-19T17:01:19.964Z,10.86
2023-03-19T17:03:47.854Z,10.70
2023-03-19T17:06:16.025Z,10.57
2023-03-19T17:08:43.653Z,10.42
2023-03-19T17:11:30.930Z,10.22
2023-03-19T17:13:59.363Z,10.04
2023-03-19T17:16:28.148Z,9.90
2023-03-19T17:18:56.682Z,9.77
2023-03-19T17:21:31.279Z,9.64
2023-03-19T17:24:02.757Z,9.51
2023-03-19T17:26:29.868Z,9.32
2023-03-19T17:28:57.177Z,9.11
2023-03-19T17:31:32.316Z,8.97
2023-03-19T17:34:13.206Z,8.85
2023-03-19T17:36:40.749Z,8.68
2023-03-19T17:39:11.316Z,8.51
2023-03-19T17:41:38.169Z,8.36
2023-03-19T17:44:06.671Z,8.15
2023-03-19T17:46:38.757Z,7.99
2023-03-19T17:49:07.378Z,7.86
2023-03-19T17:51:34.418Z,7.70
2023-03-19T17:54:01.703Z,7.59
2023-03-19T17:56:28.641Z,7.46
2023-03-19T17:58:55.802Z,7.34
2023-03-19T18:01:27.324Z,7.24
2023-03-19T18:03:56.345Z,7.12
2023-03-19T18:06:25.843Z,6.96
2023-03-19T18:08:52.993Z,6.82
2023-03-19T18:11:20.237Z,6.70
2023-03-19T18:13:47.370Z,6.66
2023-03-19T18:16:24.945Z,6.58
2023-03-19T18:18:53.036Z,6.41
2023-03-19T18:21:19.997Z,6.35
2023-03-19T18:23:47.265Z,6.29
2023-03-19T18:26:14.215Z,6.18
2023-03-19T18:28:41.408Z,6.11
2023-03-19T18:31:20.443Z,6.01
2023-03-19T18:33:53.838Z,5.96
2023-03-19T18:36:26.874Z,5.90
2023-03-19T18:38:55.362Z,5.81
2023-03-19T18:41:24.092Z,5.76
2023-03-19T18:43:51.420Z,5.70
2023-03-19T18:46:26.241Z,5.62
2023-03-19T18:49:05.881Z,5.58
2023-03-19T18:51:33.044Z,5.55
2023-03-19T18:54:00.678Z,5.50
2023-03-19T18:56:31.189Z,5.45
2023-03-19T18:58:59.391Z,5.44
2023-03-19T19:01:27.403Z,5.42
2023-03-19T19:03:55.123Z,5.37
2023-03-19T19:06:40.066Z,5.31
2023-03-19T19:09:13.834Z,5.28
2023-03-19T19:11:44.568Z,5.19
2023-03-19T19:14:19.372Z,5.09
2023-03-19T19:16:47.037Z,5.03
2023-03-19T19:19:23.319Z,4.99
2023-03-19T19:21:50.972Z,4.98
2023-03-19T19:24:18.310Z,4.95
2023-03-19T19:26:46.722Z,4.93
2023-03-19T19:29:23.905Z,4.86
2023-03-19T19:31:51.482Z,4.86
2023-03-19T19:34:18.701Z,4.85
2023-03-19T19:36:45.875Z,4.82
2023-03-19T19:39:13.225Z,4.78
2023-03-19T19:41:40.980Z,4.73
2023-03-19T19:44:18.789Z,4.71
2023-03-19T19:46:45.811Z,4.69
2023-03-19T19:49:14.520Z,4.71
2023-03-19T19:51:41.518Z,4.75
2023-03-19T19:54:08.716Z,4.72
2023-03-19T19:56:35.773Z,4.72
2023-03-19T19:59:06.574Z,4.70
2023-03-19T20:01:33.539Z,4.70
2023-03-19T20:04:00.868Z,4.68
2023-03-19T20:06:28.033Z,4.66
2023-03-19T20:08:55.262Z,4.68
2023-03-19T20:11:24.384Z,4.66
2023-03-19T20:13:55.573Z,4.61
2023-03-19T20:16:26.791Z,4.60
2023-03-19T20:18:55.128Z,4.58
2023-03-19T20:21:23.002Z,4.51
2023-03-19T20:23:53.182Z,4.45
2023-03-19T20:26:22.760Z,4.45
2023-03-19T20:28:51.128Z,4.46
2023-03-19T20:31:31.148Z,4.45
2023-03-19T20:33:58.713Z,4.46
2023-03-19T20:36:26.806Z,4.46
2023-03-19T20:38:54.306Z,4.49
2023-03-19T20:41:29.375Z,4.59
2023-03-19T20:43:57.034Z,4.63
2023-03-19T20:46:24.815Z,4.68
2023-03-19T20:48:52.055Z,4.76
2023-03-19T20:51:22.794Z,4.79
2023-03-19T20:53:51.574Z,4.85
2023-03-19T20:56:22.374Z,4.92
2023-03-19T20:58:49.933Z,4.95
2023-03-19T21:01:17.994Z,4.96
2023-03-19T21:03:45.376Z,4.94
2023-03-19T21:06:19.275Z,4.94
2023-03-19T21:08:54.571Z,4.94
2023-03-19T21:11:23.272Z,4.92
2023-03-19T21:13:52.832Z,4.93
2023-03-19T21:16:23.892Z,4.90
2023-03-19T21:18:51.991Z,4.94
2023-03-19T21:21:27.211Z,4.92
2023-03-19T21:23:59.362Z,4.93
2023-03-19T21:26:26.414Z,4.97
2023-03-19T21:29:04.377Z,4.99
2023-03-19T21:31:31.371Z,5.00
2023-03-19T21:33:59.424Z,4.99
2023-03-19T21:36:27.667Z,4.95
2023-03-19T21:38:54.841Z,4.92
2023-03-19T21:41:26.106Z,4.90
2023-03-19T21:43:59.895Z,4.91
2023-03-19T21:46:29.723Z,4.96
2023-03-19T21:48:58.269Z,4.95
2023-03-19T21:51:27.120Z,4.95
2023-03-19T21:53:54.122Z,4.98
2023-03-19T21:56:34.163Z,5.02
2023-03-19T21:59:04.488Z,5.08
2023-03-19T22:01:32.189Z,5.15
2023-03-19T22:03:59.120Z,5.27
2023-03-19T22:06:26.362Z,5.33
2023-03-19T22:08:54.275Z,5.38
2023-03-19T22:11:26.207Z,5.38
2023-03-19T22:13:53.759Z,5.41
2023-03-19T22:16:24.207Z,5.47
2023-03-19T22:18:52.582Z,5.46
2023-03-19T22:21:22.775Z,5.42
2023-03-19T22:23:50.971Z,5.43
2023-03-19T22:26:39.115Z,5.38
2023-03-19T22:29:24.601Z,5.38
2023-03-19T22:31:53.866Z,5.41
2023-03-19T22:34:24.091Z,5.47
2023-03-19T22:36:52.667Z,5.53
2023-03-19T22:39:19.692Z,5.57
2023-03-19T22:41:48.436Z,5.63
2023-03-19T22:44:28.794Z,5.68
2023-03-19T22:46:58.605Z,5.74
2023-03-19T22:49:26.567Z,5.78
2023-03-19T22:51:53.858Z,5.82
2023-03-19T22:54:20.820Z,5.85
2023-03-19T22:56:48.011Z,5.86
2023-03-19T22:59:14.862Z,5.87
2023-03-19T23:01:46.404Z,5.87
2023-03-19T23:04:23.719Z,5.86
2023-03-19T23:06:52.679Z,5.87
2023-03-19T23:09:23.165Z,5.87
2023-03-19T23:11:51.649Z,5.92
2023-03-19T23:14:29.214Z,5.93
2023-03-19T23:17:14.584Z,5.92
2023-03-19T23:19:41.484Z,5.93
2023-03-19T23:22:15.166Z,5.99
2023-03-19T23:24:42.414Z,6.07
2023-03-19T23:27:22.969Z,6.15
2023-03-19T23:29:50.045Z,6.23
2023-03-19T23:32:17.402Z,6.32
2023-03-19T23:34:57.171Z,6.40
2023-03-19T23:37:27.393Z,6.43
2023-03-19T23:39:54.277Z,6.44
2023-03-19T23:42:28.705Z,6.47
2023-03-19T23:44:59.101Z,6.45
2023-03-19T23:47:28.961Z,6.48
2023-03-19T23:49:56.418Z,6.52
2023-03-19T23:52:23.538Z,6.59
2023-03-19T23:54:50.872Z,6.71
2023-03-19T23:57:18.060Z,6.82
2023-03-19T23:59:48.188Z,6.93
